Algonquin, Illinois
Current Conditions -  °F | °C
As of 4:52 AM on Thursday 27 Nov 2014 (Local Time) from KDPA Reporting Station
Haze Haze  
Wind Chill: -11°   Ceiling: 5500
Heat Index: -6°   Visibility: 6mi
Dew Point: -8°   Wind: 8mph
Humidity: 82%   Direction: 320°NW
Pressure: 30.25"   Gusts: NA
Location:  42.17°N, 88.29°W
Report Text: KDPA 271052Z 32007KT 6SM HZ OVC055 M06/M08 A3025 RMK AO2 SLP254 T10561083
Loading
Personal Weather Stations






























Interactive Weather Map New forecast layout! Learn more

10-Day Weather Forecast

Advertisements
Track Severe Weather on mobile